sensor_id;sensor_type;location;lat;lon;timestamp;P1;durP1;ratioP1;P2;durP2;ratioP2
54999;SDS011;40897;47.998;18.856;2024-03-02T00:00:00;21.7;;;20.9;;
54999;SDS011;40897;47.998;18.856;2024-03-02T00:05:00;22.0;;;21.3;;
54999;SDS011;40897;47.998;18.856;2024-03-02T00:10:00;20.7;;;20.1;;
54999;SDS011;40897;47.998;18.856;2024-03-02T00:15:00;24.7;;;23.5;;
54999;SDS011;40897;47.998;18.856;2024-03-02T00:20:00;23.1;;;22.5;;
54999;SDS011;40897;47.998;18.856;2024-03-02T00:25:00;24.4;;;23.4;;
54999;SDS011;40897;47.998;18.856;2024-03-02T00:30:00;26.4;;;24.9;;
54999;SDS011;40897;47.998;18.856;2024-03-02T00:35:00;25.5;;;24.8;;
54999;SDS011;40897;47.998;18.856;2024-03-02T00:40:00;23.7;;;23.2;;
54999;SDS011;40897;47.998;18.856;2024-03-02T00:45:01;25.9;;;25.0;;
54999;SDS011;40897;47.998;18.856;2024-03-02T00:50:00;25.9;;;24.9;;
54999;SDS011;40897;47.998;18.856;2024-03-02T00:55:00;24.2;;;23.6;;
54999;SDS011;40897;47.998;18.856;2024-03-02T01:00:00;26.6;;;25.7;;
54999;SDS011;40897;47.998;18.856;2024-03-02T01:05:00;25.7;;;25.1;;
54999;SDS011;40897;47.998;18.856;2024-03-02T01:10:00;25.3;;;24.2;;
54999;SDS011;40897;47.998;18.856;2024-03-02T01:15:00;22.8;;;22.1;;
54999;SDS011;40897;47.998;18.856;2024-03-02T01:20:00;25.0;;;24.2;;
54999;SDS011;40897;47.998;18.856;2024-03-02T01:25:00;28.9;;;27.5;;
54999;SDS011;40897;47.998;18.856;2024-03-02T01:30:00;25.5;;;24.7;;
54999;SDS011;40897;47.998;18.856;2024-03-02T01:35:00;25.1;;;24.0;;
54999;SDS011;40897;47.998;18.856;2024-03-02T01:40:00;25.4;;;24.9;;
54999;SDS011;40897;47.998;18.856;2024-03-02T01:45:00;31.1;;;29.9;;
54999;SDS011;40897;47.998;18.856;2024-03-02T01:50:00;25.4;;;24.4;;
54999;SDS011;40897;47.998;18.856;2024-03-02T01:55:00;24.4;;;23.2;;
54999;SDS011;40897;47.998;18.856;2024-03-02T02:00:01;24.9;;;24.3;;
54999;SDS011;40897;47.998;18.856;2024-03-02T02:05:00;28.1;;;26.2;;
54999;SDS011;40897;47.998;18.856;2024-03-02T02:10:00;29.6;;;28.4;;
54999;SDS011;40897;47.998;18.856;2024-03-02T02:15:00;28.1;;;26.9;;
54999;SDS011;40897;47.998;18.856;2024-03-02T02:20:00;27.0;;;26.3;;
54999;SDS011;40897;47.998;18.856;2024-03-02T02:25:00;26.8;;;25.7;;
54999;SDS011;40897;47.998;18.856;2024-03-02T02:30:00;30.3;;;28.4;;
54999;SDS011;40897;47.998;18.856;2024-03-02T02:35:00;24.9;;;24.1;;
54999;SDS011;40897;47.998;18.856;2024-03-02T02:40:00;23.8;;;23.1;;
54999;SDS011;40897;47.998;18.856;2024-03-02T02:45:00;25.5;;;24.7;;
54999;SDS011;40897;47.998;18.856;2024-03-02T02:50:00;28.1;;;27.0;;
54999;SDS011;40897;47.998;18.856;2024-03-02T02:55:00;26.7;;;25.4;;
54999;SDS011;40897;47.998;18.856;2024-03-02T03:00:00;28.7;;;27.6;;
54999;SDS011;40897;47.998;18.856;2024-03-02T03:05:00;25.6;;;24.8;;
54999;SDS011;40897;47.998;18.856;2024-03-02T03:10:00;24.9;;;23.9;;
54999;SDS011;40897;47.998;18.856;2024-03-02T03:15:00;26.7;;;25.3;;
54999;SDS011;40897;47.998;18.856;2024-03-02T03:20:00;31.5;;;30.2;;
54999;SDS011;40897;47.998;18.856;2024-03-02T03:25:00;36.0;;;32.8;;
54999;SDS011;40897;47.998;18.856;2024-03-02T03:30:00;24.2;;;23.3;;
54999;SDS011;40897;47.998;18.856;2024-03-02T03:35:00;26.5;;;25.2;;
54999;SDS011;40897;47.998;18.856;2024-03-02T03:40:00;27.8;;;26.5;;
54999;SDS011;40897;47.998;18.856;2024-03-02T03:45:01;25.9;;;24.4;;
54999;SDS011;40897;47.998;18.856;2024-03-02T03:50:00;25.3;;;24.4;;
54999;SDS011;40897;47.998;18.856;2024-03-02T03:55:00;23.7;;;23.4;;
54999;SDS011;40897;47.998;18.856;2024-03-02T04:00:01;24.9;;;24.2;;
54999;SDS011;40897;47.998;18.856;2024-03-02T04:05:00;28.4;;;27.5;;
54999;SDS011;40897;47.998;18.856;2024-03-02T04:10:00;32.2;;;30.6;;
54999;SDS011;40897;47.998;18.856;2024-03-02T04:15:00;31.7;;;30.3;;
54999;SDS011;40897;47.998;18.856;2024-03-02T04:20:00;33.6;;;31.9;;
54999;SDS011;40897;47.998;18.856;2024-03-02T04:25:00;32.5;;;31.3;;
54999;SDS011;40897;47.998;18.856;2024-03-02T04:30:00;33.6;;;31.7;;
54999;SDS011;40897;47.998;18.856;2024-03-02T04:35:00;32.4;;;31.2;;
54999;SDS011;40897;47.998;18.856;2024-03-02T04:40:00;33.7;;;32.0;;
54999;SDS011;40897;47.998;18.856;2024-03-02T04:45:00;32.0;;;30.6;;
54999;SDS011;40897;47.998;18.856;2024-03-02T04:50:00;34.6;;;32.4;;
54999;SDS011;40897;47.998;18.856;2024-03-02T04:55:00;36.4;;;34.5;;
54999;SDS011;40897;47.998;18.856;2024-03-02T05:00:00;36.3;;;34.0;;
54999;SDS011;40897;47.998;18.856;2024-03-02T05:05:00;34.9;;;32.8;;
54999;SDS011;40897;47.998;18.856;2024-03-02T05:10:00;32.9;;;31.8;;
54999;SDS011;40897;47.998;18.856;2024-03-02T05:15:00;33.9;;;31.9;;
54999;SDS011;40897;47.998;18.856;2024-03-02T05:20:00;30.8;;;29.8;;
54999;SDS011;40897;47.998;18.856;2024-03-02T05:25:00;30.5;;;29.1;;
54999;SDS011;40897;47.998;18.856;2024-03-02T05:30:00;29.7;;;28.8;;
54999;SDS011;40897;47.998;18.856;2024-03-02T05:35:00;32.2;;;30.7;;
54999;SDS011;40897;47.998;18.856;2024-03-02T05:40:00;33.6;;;31.9;;
54999;SDS011;40897;47.998;18.856;2024-03-02T05:45:00;33.7;;;31.7;;
54999;SDS011;40897;47.998;18.856;2024-03-02T05:50:00;34.3;;;32.4;;
54999;SDS011;40897;47.998;18.856;2024-03-02T05:55:00;33.7;;;31.3;;
54999;SDS011;40897;47.998;18.856;2024-03-02T06:00:00;31.8;;;29.7;;
54999;SDS011;40897;47.998;18.856;2024-03-02T06:05:00;32.7;;;30.4;;
54999;SDS011;40897;47.998;18.856;2024-03-02T06:10:00;30.9;;;28.7;;
54999;SDS011;40897;47.998;18.856;2024-03-02T06:15:00;32.2;;;29.8;;
54999;SDS011;40897;47.998;18.856;2024-03-02T06:20:00;32.1;;;29.3;;
54999;SDS011;40897;47.998;18.856;2024-03-02T06:25:00;31.3;;;29.8;;
54999;SDS011;40897;47.998;18.856;2024-03-02T06:30:00;33.0;;;30.8;;
54999;SDS011;40897;47.998;18.856;2024-03-02T06:35:00;34.3;;;32.2;;
54999;SDS011;40897;47.998;18.856;2024-03-02T06:40:00;33.5;;;31.2;;
54999;SDS011;40897;47.998;18.856;2024-03-02T06:45:00;33.8;;;31.8;;
54999;SDS011;40897;47.998;18.856;2024-03-02T06:50:00;35.1;;;33.0;;
54999;SDS011;40897;47.998;18.856;2024-03-02T06:55:00;35.4;;;32.8;;
54999;SDS011;40897;47.998;18.856;2024-03-02T07:00:01;32.8;;;31.0;;
54999;SDS011;40897;47.998;18.856;2024-03-02T07:05:00;34.1;;;31.5;;
54999;SDS011;40897;47.998;18.856;2024-03-02T07:10:00;36.5;;;33.1;;
54999;SDS011;40897;47.998;18.856;2024-03-02T07:15:00;31.8;;;29.7;;
54999;SDS011;40897;47.998;18.856;2024-03-02T07:20:00;30.3;;;28.1;;
54999;SDS011;40897;47.998;18.856;2024-03-02T07:25:00;30.9;;;28.8;;
54999;SDS011;40897;47.998;18.856;2024-03-02T07:30:00;39.1;;;36.1;;
54999;SDS011;40897;47.998;18.856;2024-03-02T07:35:00;48.3;;;43.1;;
54999;SDS011;40897;47.998;18.856;2024-03-02T07:40:00;44.1;;;39.8;;
54999;SDS011;40897;47.998;18.856;2024-03-02T07:45:00;41.7;;;37.7;;
54999;SDS011;40897;47.998;18.856;2024-03-02T07:50:00;37.5;;;35.1;;
54999;SDS011;40897;47.998;18.856;2024-03-02T07:55:00;41.5;;;39.2;;
54999;SDS011;40897;47.998;18.856;2024-03-02T08:00:00;42.5;;;39.6;;
54999;SDS011;40897;47.998;18.856;2024-03-02T08:05:00;42.2;;;40.0;;
54999;SDS011;40897;47.998;18.856;2024-03-02T08:10:00;40.6;;;38.3;;
54999;SDS011;40897;47.998;18.856;2024-03-02T08:15:00;44.7;;;40.7;;
54999;SDS011;40897;47.998;18.856;2024-03-02T08:20:00;30.4;;;28.4;;
54999;SDS011;40897;47.998;18.856;2024-03-02T08:25:00;21.4;;;20.6;;
54999;SDS011;40897;47.998;18.856;2024-03-02T08:30:00;24.4;;;22.2;;
54999;SDS011;40897;47.998;18.856;2024-03-02T08:35:00;21.7;;;20.4;;
54999;SDS011;40897;47.998;18.856;2024-03-02T08:40:00;25.1;;;22.5;;
54999;SDS011;40897;47.998;18.856;2024-03-02T08:45:00;23.0;;;21.0;;
54999;SDS011;40897;47.998;18.856;2024-03-02T08:50:00;21.8;;;20.7;;
54999;SDS011;40897;47.998;18.856;2024-03-02T08:55:00;22.0;;;20.2;;
54999;SDS011;40897;47.998;18.856;2024-03-02T09:00:00;20.5;;;19.5;;
54999;SDS011;40897;47.998;18.856;2024-03-02T09:05:00;21.1;;;19.4;;
54999;SDS011;40897;47.998;18.856;2024-03-02T09:10:00;20.7;;;19.4;;
54999;SDS011;40897;47.998;18.856;2024-03-02T09:15:00;22.7;;;20.3;;
54999;SDS011;40897;47.998;18.856;2024-03-02T09:20:00;22.7;;;20.8;;
54999;SDS011;40897;47.998;18.856;2024-03-02T09:25:00;25.2;;;23.3;;
54999;SDS011;40897;47.998;18.856;2024-03-02T09:30:00;32.4;;;30.2;;
54999;SDS011;40897;47.998;18.856;2024-03-02T09:35:00;36.3;;;32.8;;
54999;SDS011;40897;47.998;18.856;2024-03-02T09:40:00;27.6;;;26.2;;
54999;SDS011;40897;47.998;18.856;2024-03-02T09:45:00;34.2;;;31.1;;
54999;SDS011;40897;47.998;18.856;2024-03-02T09:50:00;39.5;;;36.2;;
54999;SDS011;40897;47.998;18.856;2024-03-02T09:55:00;31.2;;;29.4;;
54999;SDS011;40897;47.998;18.856;2024-03-02T10:00:00;29.9;;;28.0;;
54999;SDS011;40897;47.998;18.856;2024-03-02T10:05:00;29.2;;;27.0;;
54999;SDS011;40897;47.998;18.856;2024-03-02T10:10:18;20.7;;;19.5;;
54999;SDS011;40897;47.998;18.856;2024-03-02T10:15:03;20.7;;;19.8;;
54999;SDS011;40897;47.998;18.856;2024-03-02T10:20:00;20.3;;;19.4;;
54999;SDS011;40897;47.998;18.856;2024-03-02T10:25:00;23.4;;;21.8;;
54999;SDS011;40897;47.998;18.856;2024-03-02T10:30:00;23.0;;;21.0;;
54999;SDS011;40897;47.998;18.856;2024-03-02T10:35:00;23.2;;;20.8;;
54999;SDS011;40897;47.998;18.856;2024-03-02T10:40:04;24.5;;;23.0;;
54999;SDS011;40897;47.998;18.856;2024-03-02T10:45:00;26.8;;;24.8;;
54999;SDS011;40897;47.998;18.856;2024-03-02T10:50:00;28.5;;;26.3;;
54999;SDS011;40897;47.998;18.856;2024-03-02T10:55:00;23.9;;;22.6;;
54999;SDS011;40897;47.998;18.856;2024-03-02T11:00:01;27.5;;;25.2;;
54999;SDS011;40897;47.998;18.856;2024-03-02T11:05:00;29.5;;;26.9;;
54999;SDS011;40897;47.998;18.856;2024-03-02T11:10:00;30.8;;;28.2;;
54999;SDS011;40897;47.998;18.856;2024-03-02T11:15:00;27.5;;;25.7;;
54999;SDS011;40897;47.998;18.856;2024-03-02T11:20:00;28.0;;;26.0;;
54999;SDS011;40897;47.998;18.856;2024-03-02T11:25:00;26.3;;;24.9;;
54999;SDS011;40897;47.998;18.856;2024-03-02T11:30:00;26.1;;;24.9;;
54999;SDS011;40897;47.998;18.856;2024-03-02T11:35:00;25.5;;;24.3;;
54999;SDS011;40897;47.998;18.856;2024-03-02T11:40:00;25.9;;;24.7;;
54999;SDS011;40897;47.998;18.856;2024-03-02T11:45:00;26.9;;;24.8;;
54999;SDS011;40897;47.998;18.856;2024-03-02T11:50:00;23.5;;;21.8;;
54999;SDS011;40897;47.998;18.856;2024-03-02T11:55:00;22.5;;;21.2;;
54999;SDS011;40897;47.998;18.856;2024-03-02T12:00:00;19.9;;;19.1;;
54999;SDS011;40897;47.998;18.856;2024-03-02T12:05:02;16.8;;;16.1;;
54999;SDS011;40897;47.998;18.856;2024-03-02T12:10:00;16.6;;;16.0;;
54999;SDS011;40897;47.998;18.856;2024-03-02T12:15:00;12.8;;;12.4;;
54999;SDS011;40897;47.998;18.856;2024-03-02T12:20:00;13.2;;;12.7;;
54999;SDS011;40897;47.998;18.856;2024-03-02T12:25:00;7.2;;;7.0;;
54999;SDS011;40897;47.998;18.856;2024-03-02T12:30:00;7.6;;;7.5;;
54999;SDS011;40897;47.998;18.856;2024-03-02T12:35:00;7.7;;;7.5;;
54999;SDS011;40897;47.998;18.856;2024-03-02T12:40:00;6.9;;;6.8;;
54999;SDS011;40897;47.998;18.856;2024-03-02T12:45:00;6.8;;;6.6;;
54999;SDS011;40897;47.998;18.856;2024-03-02T12:50:00;5.7;;;5.6;;
54999;SDS011;40897;47.998;18.856;2024-03-02T12:55:01;4.5;;;4.4;;
54999;SDS011;40897;47.998;18.856;2024-03-02T13:05:00;3.8;;;3.8;;
54999;SDS011;40897;47.998;18.856;2024-03-02T13:10:00;3.7;;;3.7;;
54999;SDS011;40897;47.998;18.856;2024-03-02T13:15:00;4.6;;;4.5;;
54999;SDS011;40897;47.998;18.856;2024-03-02T13:20:00;5.0;;;5.0;;
54999;SDS011;40897;47.998;18.856;2024-03-02T13:25:00;5.7;;;5.5;;
54999;SDS011;40897;47.998;18.856;2024-03-02T13:30:00;5.7;;;5.5;;
54999;SDS011;40897;47.998;18.856;2024-03-02T13:35:00;5.3;;;5.2;;
54999;SDS011;40897;47.998;18.856;2024-03-02T13:40:00;5.8;;;5.8;;
54999;SDS011;40897;47.998;18.856;2024-03-02T13:45:00;4.9;;;4.8;;
54999;SDS011;40897;47.998;18.856;2024-03-02T13:50:00;5.7;;;5.5;;
54999;SDS011;40897;47.998;18.856;2024-03-02T13:55:00;4.4;;;4.4;;
54999;SDS011;40897;47.998;18.856;2024-03-02T14:00:00;5.0;;;4.8;;
54999;SDS011;40897;47.998;18.856;2024-03-02T14:05:00;5.2;;;5.2;;
54999;SDS011;40897;47.998;18.856;2024-03-02T14:10:00;5.5;;;5.5;;
54999;SDS011;40897;47.998;18.856;2024-03-02T14:15:00;5.6;;;5.5;;
54999;SDS011;40897;47.998;18.856;2024-03-02T14:20:00;5.7;;;5.7;;
54999;SDS011;40897;47.998;18.856;2024-03-02T14:25:00;6.8;;;6.6;;
54999;SDS011;40897;47.998;18.856;2024-03-02T14:30:00;5.9;;;5.8;;
54999;SDS011;40897;47.998;18.856;2024-03-02T14:35:00;6.7;;;6.5;;
54999;SDS011;40897;47.998;18.856;2024-03-02T14:40:00;9.5;;;9.3;;
54999;SDS011;40897;47.998;18.856;2024-03-02T14:45:00;8.4;;;8.1;;
54999;SDS011;40897;47.998;18.856;2024-03-02T14:50:00;20.1;;;19.3;;
54999;SDS011;40897;47.998;18.856;2024-03-02T14:55:00;12.7;;;12.2;;
54999;SDS011;40897;47.998;18.856;2024-03-02T15:00:00;7.9;;;7.7;;
54999;SDS011;40897;47.998;18.856;2024-03-02T15:05:00;7.5;;;7.2;;
54999;SDS011;40897;47.998;18.856;2024-03-02T15:10:00;22.8;;;22.1;;
54999;SDS011;40897;47.998;18.856;2024-03-02T15:15:00;8.6;;;8.6;;
54999;SDS011;40897;47.998;18.856;2024-03-02T15:20:00;9.9;;;9.5;;
54999;SDS011;40897;47.998;18.856;2024-03-02T15:25:00;9.5;;;9.3;;
54999;SDS011;40897;47.998;18.856;2024-03-02T15:30:00;20.0;;;17.5;;
54999;SDS011;40897;47.998;18.856;2024-03-02T15:35:00;14.1;;;13.4;;
54999;SDS011;40897;47.998;18.856;2024-03-02T15:40:00;13.3;;;12.7;;
54999;SDS011;40897;47.998;18.856;2024-03-02T15:45:00;12.8;;;12.2;;
54999;SDS011;40897;47.998;18.856;2024-03-02T15:50:00;15.4;;;14.5;;
54999;SDS011;40897;47.998;18.856;2024-03-02T15:55:00;14.6;;;13.6;;
54999;SDS011;40897;47.998;18.856;2024-03-02T16:00:00;18.5;;;17.4;;
54999;SDS011;40897;47.998;18.856;2024-03-02T16:05:00;15.8;;;14.3;;
54999;SDS011;40897;47.998;18.856;2024-03-02T16:10:00;16.6;;;15.1;;
54999;SDS011;40897;47.998;18.856;2024-03-02T16:15:00;17.9;;;16.6;;
54999;SDS011;40897;47.998;18.856;2024-03-02T16:20:00;17.0;;;15.4;;
54999;SDS011;40897;47.998;18.856;2024-03-02T16:25:00;18.5;;;16.6;;
54999;SDS011;40897;47.998;18.856;2024-03-02T16:30:00;26.6;;;23.4;;
54999;SDS011;40897;47.998;18.856;2024-03-02T16:35:00;29.7;;;27.9;;
54999;SDS011;40897;47.998;18.856;2024-03-02T16:40:00;27.7;;;26.8;;
54999;SDS011;40897;47.998;18.856;2024-03-02T16:45:00;15.6;;;15.1;;
54999;SDS011;40897;47.998;18.856;2024-03-02T16:50:00;15.3;;;14.3;;
54999;SDS011;40897;47.998;18.856;2024-03-02T16:55:00;18.0;;;17.1;;
54999;SDS011;40897;47.998;18.856;2024-03-02T17:00:00;20.0;;;19.3;;
54999;SDS011;40897;47.998;18.856;2024-03-02T17:05:00;19.8;;;18.8;;
54999;SDS011;40897;47.998;18.856;2024-03-02T17:10:00;14.2;;;13.6;;
54999;SDS011;40897;47.998;18.856;2024-03-02T17:15:00;35.4;;;33.5;;
54999;SDS011;40897;47.998;18.856;2024-03-02T17:20:00;18.4;;;17.4;;
54999;SDS011;40897;47.998;18.856;2024-03-02T17:25:00;16.3;;;15.5;;
54999;SDS011;40897;47.998;18.856;2024-03-02T17:30:00;26.9;;;25.9;;
54999;SDS011;40897;47.998;18.856;2024-03-02T17:35:00;26.2;;;25.2;;
54999;SDS011;40897;47.998;18.856;2024-03-02T17:40:00;27.5;;;26.3;;
54999;SDS011;40897;47.998;18.856;2024-03-02T17:45:00;20.2;;;18.8;;
54999;SDS011;40897;47.998;18.856;2024-03-02T17:50:00;25.8;;;23.6;;
54999;SDS011;40897;47.998;18.856;2024-03-02T17:55:00;39.1;;;32.7;;
54999;SDS011;40897;47.998;18.856;2024-03-02T18:00:01;20.9;;;18.3;;
54999;SDS011;40897;47.998;18.856;2024-03-02T18:05:00;19.2;;;17.4;;
54999;SDS011;40897;47.998;18.856;2024-03-02T18:10:00;18.8;;;17.2;;
54999;SDS011;40897;47.998;18.856;2024-03-02T18:15:00;18.2;;;16.3;;
54999;SDS011;40897;47.998;18.856;2024-03-02T18:20:00;19.4;;;17.1;;
54999;SDS011;40897;47.998;18.856;2024-03-02T18:25:00;19.7;;;18.1;;
54999;SDS011;40897;47.998;18.856;2024-03-02T18:30:00;17.5;;;15.9;;
54999;SDS011;40897;47.998;18.856;2024-03-02T18:35:00;18.7;;;16.7;;
54999;SDS011;40897;47.998;18.856;2024-03-02T18:40:00;22.4;;;21.0;;
54999;SDS011;40897;47.998;18.856;2024-03-02T18:45:00;20.5;;;18.9;;
54999;SDS011;40897;47.998;18.856;2024-03-02T18:50:00;21.1;;;19.6;;
54999;SDS011;40897;47.998;18.856;2024-03-02T18:55:00;21.1;;;19.2;;
54999;SDS011;40897;47.998;18.856;2024-03-02T19:00:00;25.9;;;24.0;;
54999;SDS011;40897;47.998;18.856;2024-03-02T19:05:00;26.3;;;24.1;;
54999;SDS011;40897;47.998;18.856;2024-03-02T19:10:00;22.5;;;20.8;;
54999;SDS011;40897;47.998;18.856;2024-03-02T19:15:00;23.1;;;21.1;;
54999;SDS011;40897;47.998;18.856;2024-03-02T19:20:00;28.8;;;26.5;;
54999;SDS011;40897;47.998;18.856;2024-03-02T19:25:00;27.2;;;24.7;;
54999;SDS011;40897;47.998;18.856;2024-03-02T19:30:00;23.2;;;20.7;;
54999;SDS011;40897;47.998;18.856;2024-03-02T19:35:00;22.8;;;20.0;;
54999;SDS011;40897;47.998;18.856;2024-03-02T19:40:00;22.2;;;19.8;;
54999;SDS011;40897;47.998;18.856;2024-03-02T19:45:00;24.0;;;20.7;;
54999;SDS011;40897;47.998;18.856;2024-03-02T19:50:00;25.9;;;21.8;;
54999;SDS011;40897;47.998;18.856;2024-03-02T19:55:00;27.3;;;22.5;;
54999;SDS011;40897;47.998;18.856;2024-03-02T20:00:00;24.5;;;20.9;;
54999;SDS011;40897;47.998;18.856;2024-03-02T20:05:00;27.3;;;22.6;;
54999;SDS011;40897;47.998;18.856;2024-03-02T20:10:00;27.7;;;23.3;;
54999;SDS011;40897;47.998;18.856;2024-03-02T20:15:00;22.9;;;20.6;;
54999;SDS011;40897;47.998;18.856;2024-03-02T20:20:00;28.7;;;25.3;;
54999;SDS011;40897;47.998;18.856;2024-03-02T20:25:00;27.7;;;24.5;;
54999;SDS011;40897;47.998;18.856;2024-03-02T20:30:00;29.0;;;25.7;;
54999;SDS011;40897;47.998;18.856;2024-03-02T20:35:00;29.0;;;26.1;;
54999;SDS011;40897;47.998;18.856;2024-03-02T20:40:00;27.0;;;24.2;;
54999;SDS011;40897;47.998;18.856;2024-03-02T20:45:00;29.3;;;25.6;;
54999;SDS011;40897;47.998;18.856;2024-03-02T20:50:00;29.6;;;24.9;;
54999;SDS011;40897;47.998;18.856;2024-03-02T20:55:00;32.5;;;27.0;;
54999;SDS011;40897;47.998;18.856;2024-03-02T21:00:00;29.5;;;25.2;;
54999;SDS011;40897;47.998;18.856;2024-03-02T21:05:00;30.5;;;25.5;;
54999;SDS011;40897;47.998;18.856;2024-03-02T21:10:00;29.8;;;24.8;;
54999;SDS011;40897;47.998;18.856;2024-03-02T21:15:00;30.0;;;25.4;;
54999;SDS011;40897;47.998;18.856;2024-03-02T21:20:00;30.7;;;25.4;;
54999;SDS011;40897;47.998;18.856;2024-03-02T21:25:00;28.0;;;24.0;;
54999;SDS011;40897;47.998;18.856;2024-03-02T21:30:00;32.9;;;26.8;;
54999;SDS011;40897;47.998;18.856;2024-03-02T21:35:00;29.4;;;24.7;;
54999;SDS011;40897;47.998;18.856;2024-03-02T21:40:00;32.2;;;26.7;;
54999;SDS011;40897;47.998;18.856;2024-03-02T21:45:00;26.9;;;23.2;;
54999;SDS011;40897;47.998;18.856;2024-03-02T21:50:00;31.1;;;25.2;;
54999;SDS011;40897;47.998;18.856;2024-03-02T21:55:00;27.7;;;23.2;;
54999;SDS011;40897;47.998;18.856;2024-03-02T22:00:00;29.0;;;24.2;;
54999;SDS011;40897;47.998;18.856;2024-03-02T22:05:00;28.7;;;24.2;;
54999;SDS011;40897;47.998;18.856;2024-03-02T22:10:00;29.1;;;24.6;;
54999;SDS011;40897;47.998;18.856;2024-03-02T22:15:00;28.2;;;24.0;;
54999;SDS011;40897;47.998;18.856;2024-03-02T22:20:00;31.1;;;26.2;;
54999;SDS011;40897;47.998;18.856;2024-03-02T22:25:00;29.1;;;24.6;;
54999;SDS011;40897;47.998;18.856;2024-03-02T22:30:00;30.5;;;25.3;;
54999;SDS011;40897;47.998;18.856;2024-03-02T22:35:00;29.1;;;24.8;;
54999;SDS011;40897;47.998;18.856;2024-03-02T22:40:00;31.7;;;26.3;;
54999;SDS011;40897;47.998;18.856;2024-03-02T22:45:00;25.9;;;22.6;;
54999;SDS011;40897;47.998;18.856;2024-03-02T22:50:00;27.7;;;24.4;;
54999;SDS011;40897;47.998;18.856;2024-03-02T22:55:00;26.8;;;23.3;;
54999;SDS011;40897;47.998;18.856;2024-03-02T23:00:00;30.7;;;25.9;;
54999;SDS011;40897;47.998;18.856;2024-03-02T23:05:00;28.1;;;24.0;;
54999;SDS011;40897;47.998;18.856;2024-03-02T23:10:00;30.8;;;25.4;;
54999;SDS011;40897;47.998;18.856;2024-03-02T23:15:00;29.4;;;24.9;;
54999;SDS011;40897;47.998;18.856;2024-03-02T23:20:00;28.8;;;24.2;;
54999;SDS011;40897;47.998;18.856;2024-03-02T23:25:00;34.6;;;27.7;;
54999;SDS011;40897;47.998;18.856;2024-03-02T23:30:00;32.3;;;26.4;;
54999;SDS011;40897;47.998;18.856;2024-03-02T23:35:00;30.9;;;26.0;;
54999;SDS011;40897;47.998;18.856;2024-03-02T23:40:00;26.0;;;22.7;;
54999;SDS011;40897;47.998;18.856;2024-03-02T23:45:00;30.4;;;25.3;;
54999;SDS011;40897;47.998;18.856;2024-03-02T23:50:00;29.5;;;24.4;;
54999;SDS011;40897;47.998;18.856;2024-03-02T23:55:00;27.6;;;22.6;;
